KGWB

De Kalb County Airport

Auburn, Indiana, USA
METAR KGWB 221355Z AUTO 23007KT 10SM CLR 04/00 A3011 RMK AO2
Observed Flight Rules
Oct-22 @ 13:55 UTC (25 minutes ago) Visual Flight Rules
Wind Visibility Clouds
230° at 7 knots 10 miles
  • Clear skies
Temperatures Readings
Current 4°C / 39°F
Dewpoint 0°C / 32°F
Humidity 75%
Altimeter 30.11" Hg
Pressure 1020 hPa
Elevation 269
METAR KGWB 221355Z AUTO 23007KT 10SM CLR 04/00 A3011 RMK AO2
Observed Flight Rules
Oct-22 @ 13:55 UTC
(25 minutes ago)
VFR
Wind Visibility
230° at 7 knots 10 miles
Clouds
  • Clear skies
Temperature Dewpoint
4°C / 39°F 0°C / 32°F
Humidity Altimeter Pressure
75% 30.11" Hg 1020 hPa